Time;durP1;ratioP1;P1;durP2;ratioP2;P2;SDS_P1;SDS_P2;PMS_P1;PMS_P2;Temp;Humidity;BMP_temperature;BMP_pressure;BME280_temperature;BME280_humidity;BME280_pressure;Samples;Min_cycle;Max_cycle;Signal;HPM_P1;HPM_P2
2022/04/09 00:01:36;;;;;;;1.00;1.00;;;-6.60;99.90;;;;;;4974245;28;20207;-77
2022/04/09 00:04:03;;;;;;;0.90;0.90;;;-6.50;99.90;;;;;;4974982;28;20558;-77
2022/04/09 00:06:28;;;;;;;1.00;1.00;;;-6.50;99.90;;;;;;4975961;28;20212;-77
2022/04/09 00:08:54;;;;;;;0.90;0.90;;;-6.40;99.90;;;;;;4974948;28;20287;-77
2022/04/09 00:11:20;;;;;;;0.90;0.90;;;-6.40;99.90;;;;;;4974635;28;20200;-78
2022/04/09 00:13:46;;;;;;;0.90;0.90;;;-6.30;99.90;;;;;;4976020;28;20211;-77
2022/04/09 00:16:12;;;;;;;0.90;0.90;;;-6.30;99.90;;;;;;4974834;28;20247;-77
2022/04/09 00:18:37;;;;;;;0.90;0.90;;;-6.30;99.90;;;;;;4974427;28;20204;-77
2022/04/09 00:21:03;;;;;;;0.90;0.90;;;-6.20;99.90;;;;;;4982656;28;20219;-77
2022/04/09 00:23:29;;;;;;;0.90;0.90;;;-6.10;99.90;;;;;;4995065;28;20227;-77
2022/04/09 00:25:55;;;;;;;0.80;0.80;;;-6.10;99.90;;;;;;4993886;28;20215;-77
2022/04/09 00:28:20;;;;;;;0.87;0.87;;;-6.30;99.90;;;;;;4993702;28;20199;-77
2022/04/09 00:30:46;;;;;;;0.80;0.80;;;-6.40;99.90;;;;;;4977718;28;20258;-78
2022/04/09 00:33:12;;;;;;;0.90;0.90;;;-6.40;99.90;;;;;;4993831;28;20207;-77
2022/04/09 00:35:38;;;;;;;0.80;0.80;;;-6.30;99.90;;;;;;4973220;28;20205;-77
2022/04/09 00:38:03;;;;;;;0.80;0.80;;;-6.30;99.90;;;;;;4956284;29;20205;-77
2022/04/09 00:40:29;;;;;;;0.80;0.80;;;-6.30;99.90;;;;;;4973978;28;20295;-77
2022/04/09 00:42:55;;;;;;;0.80;0.80;;;-6.30;99.90;;;;;;4958043;28;20212;-77
2022/04/09 00:45:21;;;;;;;0.80;0.80;;;-6.40;99.90;;;;;;4975232;28;20275;-77
2022/04/09 00:47:47;;;;;;;0.90;0.90;;;-6.30;99.90;;;;;;4975428;28;20196;-77
2022/04/09 00:50:13;;;;;;;0.90;0.90;;;-6.20;99.90;;;;;;4974130;28;20204;-78
2022/04/09 00:52:50;;;;;;;0.80;0.80;;;-6.00;99.90;;;;;;4957569;28;20212;-77
2022/04/09 00:55:19;;;;;;;0.80;0.80;;;-6.10;99.90;;;;;;4957887;28;20204;-78
2022/04/09 00:57:49;;;;;;;0.80;0.80;;;-5.90;99.90;;;;;;4972165;28;20218;-78
2022/04/09 01:00:15;;;;;;;0.80;0.80;;;-5.80;99.90;;;;;;4952765;28;20279;-77
2022/04/09 01:02:43;;;;;;;0.90;0.90;;;-5.70;99.90;;;;;;4957391;28;20226;-77
2022/04/09 01:05:10;;;;;;;0.80;0.80;;;-5.70;99.90;;;;;;4957563;28;20558;-77
2022/04/09 01:07:36;;;;;;;0.80;0.80;;;-5.60;99.90;;;;;;4973513;28;20291;-77
2022/04/09 01:10:03;;;;;;;0.73;0.73;;;-5.50;99.90;;;;;;4974881;28;20646;-76
2022/04/09 01:12:34;;;;;;;0.80;0.80;;;-5.40;99.90;;;;;;4972546;28;20228;-77
2022/04/09 01:15:01;;;;;;;0.90;0.90;;;-5.30;99.90;;;;;;4973643;28;20212;-77
2022/04/09 01:17:27;;;;;;;1.30;1.23;;;-5.10;99.90;;;;;;4973508;28;20653;-77
2022/04/09 01:19:53;;;;;;;0.90;0.90;;;-5.00;99.90;;;;;;4973545;28;20208;-78
2022/04/09 01:22:18;;;;;;;0.90;0.90;;;-5.00;99.90;;;;;;4973372;28;20200;-78
2022/04/09 01:24:44;;;;;;;0.90;0.90;;;-5.00;99.90;;;;;;4973353;28;20715;-76
2022/04/09 01:27:10;;;;;;;0.90;0.90;;;-4.70;99.90;;;;;;4974645;28;20188;-76
2022/04/09 01:29:36;;;;;;;0.80;0.80;;;-4.60;99.90;;;;;;4973219;28;20192;-77
2022/04/09 01:32:01;;;;;;;0.90;0.90;;;-4.50;99.90;;;;;;4973250;28;20562;-77
2022/04/09 01:34:27;;;;;;;0.80;0.80;;;-4.40;99.90;;;;;;4973134;28;20204;-77
2022/04/09 01:36:53;;;;;;;0.80;0.80;;;-4.50;99.90;;;;;;4972984;28;20203;-77
2022/04/09 01:39:19;;;;;;;0.80;0.80;;;-4.50;99.90;;;;;;4956932;28;20659;-78
2022/04/09 01:41:47;;;;;;;0.90;0.90;;;-4.50;99.90;;;;;;4973120;28;20574;-77
2022/04/09 01:44:13;;;;;;;0.90;0.90;;;-4.50;99.90;;;;;;4973127;28;20282;-78
2022/04/09 01:46:44;;;;;;;0.90;0.90;;;-4.60;99.90;;;;;;4972854;28;20430;-77
2022/04/09 01:49:11;;;;;;;0.93;0.93;;;-4.70;99.90;;;;;;4973023;28;20203;-77
2022/04/09 01:51:36;;;;;;;0.90;0.90;;;-4.70;99.90;;;;;;4972835;28;20201;-77
2022/04/09 01:54:02;;;;;;;0.80;0.80;;;-4.30;99.90;;;;;;4972869;28;20204;-77
2022/04/09 01:56:28;;;;;;;0.95;0.95;;;-4.20;99.90;;;;;;4972789;28;20224;-77
2022/04/09 01:58:53;;;;;;;0.80;0.80;;;-4.20;99.90;;;;;;4972933;28;20706;-78
2022/04/09 02:01:19;;;;;;;0.70;0.70;;;-4.20;99.90;;;;;;4980119;28;20199;-78
2022/04/09 02:03:45;;;;;;;0.80;0.80;;;-4.20;99.90;;;;;;4992131;28;20254;-77
2022/04/09 02:06:11;;;;;;;0.90;0.90;;;-4.10;99.90;;;;;;4993427;28;20203;-77
2022/04/09 02:08:37;;;;;;;0.80;0.80;;;-4.00;99.90;;;;;;4992126;28;20693;-78
2022/04/09 02:11:03;;;;;;;0.80;0.80;;;-4.10;99.90;;;;;;4992169;28;20203;-77
2022/04/09 02:13:28;;;;;;;0.80;0.80;;;-4.10;99.90;;;;;;4984527;28;20200;-77
2022/04/09 02:15:54;;;;;;;0.85;0.85;;;-4.10;99.90;;;;;;4974007;28;20544;-77
2022/04/09 02:18:20;;;;;;;0.80;0.80;;;-4.00;99.90;;;;;;4973685;28;20192;-78
2022/04/09 02:20:45;;;;;;;0.80;0.80;;;-3.90;99.90;;;;;;4973952;28;20234;-77
2022/04/09 02:23:11;;;;;;;0.77;0.77;;;-3.80;99.90;;;;;;4972415;28;20257;-77
2022/04/09 02:25:37;;;;;;;0.90;0.90;;;-3.90;99.90;;;;;;4972322;28;20250;-77
2022/04/09 02:28:03;;;;;;;0.90;0.90;;;-4.00;99.90;;;;;;4973713;28;20204;-76
2022/04/09 02:30:29;;;;;;;1.00;1.00;;;-3.90;99.90;;;;;;4973690;28;20196;-77
2022/04/09 02:32:55;;;;;;;0.80;0.80;;;-3.90;99.90;;;;;;4972463;28;20204;-77
2022/04/09 02:35:26;;;;;;;0.80;0.80;;;-3.80;99.90;;;;;;4955949;28;20973;-76
2022/04/09 02:37:52;;;;;;;0.90;0.90;;;-3.80;99.90;;;;;;4972459;28;20211;-76
2022/04/09 02:40:18;;;;;;;0.70;0.70;;;-3.70;99.90;;;;;;4973678;28;20204;-77
2022/04/09 02:42:44;;;;;;;0.80;0.80;;;-3.60;99.90;;;;;;4972313;28;20660;-77
2022/04/09 02:45:11;;;;;;;0.85;0.85;;;-3.70;99.90;;;;;;4972410;28;20219;-76
2022/04/09 02:47:37;;;;;;;0.70;0.70;;;-3.60;99.90;;;;;;4972280;28;20578;-76
2022/04/09 02:50:04;;;;;;;0.90;0.90;;;-3.70;99.90;;;;;;4973548;28;20204;-77
2022/04/09 02:52:38;;;;;;;0.80;0.80;;;-3.70;99.90;;;;;;4956146;28;20235;-77
2022/04/09 02:55:06;;;;;;;1.67;1.58;;;-3.70;99.90;;;;;;4956155;28;20235;-77
2022/04/09 02:57:32;;;;;;;0.80;0.80;;;-3.80;99.90;;;;;;4956027;28;20231;-77
2022/04/09 02:59:58;;;;;;;0.80;0.80;;;-3.80;99.90;;;;;;4956289;28;20200;-77
2022/04/09 03:02:24;;;;;;;0.80;0.80;;;-3.80;99.90;;;;;;4964180;28;20200;-79
2022/04/09 03:04:51;;;;;;;0.80;0.80;;;-3.80;99.90;;;;;;4956178;28;20204;-77
2022/04/09 03:07:17;;;;;;;0.80;0.80;;;-3.70;99.90;;;;;;4956105;28;20200;-76
2022/04/09 03:09:44;;;;;;;0.80;0.80;;;-3.70;99.90;;;;;;4955869;28;20236;-76
2022/04/09 03:12:09;;;;;;;0.80;0.80;;;-3.80;99.90;;;;;;4973485;28;20243;-77
2022/04/09 03:14:35;;;;;;;0.80;0.80;;;-3.70;99.90;;;;;;4972130;28;20585;-76
2022/04/09 03:17:01;;;;;;;0.80;0.80;;;-3.70;99.90;;;;;;4973404;28;20196;-77
2022/04/09 03:19:26;;;;;;;0.70;0.70;;;-3.60;99.90;;;;;;4972208;28;20559;-76
2022/04/09 03:21:52;;;;;;;0.80;0.80;;;-3.60;99.90;;;;;;4972043;28;20200;-77
2022/04/09 03:24:18;;;;;;;0.80;0.80;;;-3.60;99.90;;;;;;4971739;28;20332;-77
2022/04/09 03:26:44;;;;;;;0.80;0.80;;;-3.60;99.90;;;;;;4973173;28;20212;-76
2022/04/09 03:29:10;;;;;;;0.80;0.80;;;-3.50;99.90;;;;;;4972198;28;20223;-77
2022/04/09 03:31:36;;;;;;;0.80;0.80;;;-3.50;99.90;;;;;;4969983;28;20219;-76
2022/04/09 03:34:04;;;;;;;0.75;0.75;;;-3.50;99.90;;;;;;4972026;28;20203;-77
2022/04/09 03:36:30;;;;;;;0.80;0.80;;;-3.40;99.90;;;;;;4975834;28;20211;-78
2022/04/09 03:38:56;;;;;;;0.80;0.80;;;-3.40;99.90;;;;;;4959273;28;20287;-77
2022/04/09 03:41:22;;;;;;;0.80;0.80;;;-3.30;99.90;;;;;;4976473;28;20192;-77
2022/04/09 03:43:49;;;;;;;0.80;0.80;;;-3.20;99.90;;;;;;4959255;28;20196;-77
2022/04/09 03:46:15;;;;;;;0.80;0.80;;;-3.20;99.90;;;;;;4959133;28;20216;-77
2022/04/09 03:48:45;;;;;;;0.90;0.90;;;-3.10;99.90;;;;;;4940021;28;20197;-77
2022/04/09 03:51:11;;;;;;;0.80;0.80;;;-3.00;99.90;;;;;;4955842;28;20220;-77
2022/04/09 03:53:37;;;;;;;1.35;1.00;;;-2.80;99.90;;;;;;4956885;29;20244;-77
2022/04/09 03:56:04;;;;;;;0.80;0.80;;;-2.80;99.90;;;;;;4955835;29;20684;-77
2022/04/09 03:58:30;;;;;;;0.90;0.90;;;-2.80;99.90;;;;;;4956850;29;20193;-77
2022/04/09 04:00:56;;;;;;;0.80;0.80;;;-2.70;99.90;;;;;;4956880;29;20204;-77
2022/04/09 04:03:22;;;;;;;0.80;0.80;;;-2.40;99.90;;;;;;4955393;29;20209;-76
2022/04/09 04:05:48;;;;;;;0.80;0.80;;;-2.30;99.90;;;;;;4962815;28;20234;-77
2022/04/09 04:08:14;;;;;;;0.82;0.82;;;-2.20;99.90;;;;;;4976188;28;20188;-77
2022/04/09 04:10:40;;;;;;;0.80;0.80;;;-2.20;99.90;;;;;;4974495;28;20243;-77
2022/04/09 04:13:06;;;;;;;0.80;0.80;;;-2.10;99.90;;;;;;4976241;28;20275;-77
2022/04/09 04:15:33;;;;;;;0.80;0.80;;;-2.10;99.90;;;;;;4975859;28;20232;-77
2022/04/09 04:17:59;;;;;;;0.90;0.90;;;-2.00;99.90;;;;;;4975979;28;20608;-78
2022/04/09 04:20:25;;;;;;;0.80;0.80;;;-2.00;99.90;;;;;;4958293;28;20264;-77
2022/04/09 04:22:52;;;;;;;0.80;0.80;;;-1.90;99.90;;;;;;4974495;28;20291;-77
2022/04/09 04:25:18;;;;;;;0.70;0.70;;;-1.90;99.90;;;;;;4974474;28;20698;-76
2022/04/09 04:27:46;;;;;;;0.70;0.70;;;-1.90;99.90;;;;;;4956586;28;20287;-76
2022/04/09 04:30:13;;;;;;;0.80;0.80;;;-1.90;99.90;;;;;;4970300;28;20211;-76
2022/04/09 04:32:40;;;;;;;0.90;0.90;;;-1.90;99.90;;;;;;4974207;28;20612;-76
2022/04/09 04:35:06;;;;;;;0.70;0.70;;;-1.70;99.90;;;;;;4957995;28;20601;-77
2022/04/09 04:37:43;;;;;;;0.73;0.73;;;-1.50;99.90;;;;;;4975390;28;20562;-77
2022/04/09 04:40:10;;;;;;;0.70;0.70;;;-1.40;99.90;;;;;;4958277;28;20735;-77
2022/04/09 04:42:36;;;;;;;0.70;0.70;;;-1.30;99.90;;;;;;4957805;28;20608;-77
2022/04/09 04:45:04;;;;;;;0.88;0.88;;;-1.30;99.90;;;;;;4975441;28;20288;-76
2022/04/09 04:47:30;;;;;;;0.60;0.60;;;-1.30;99.90;;;;;;4987061;28;20667;-76
2022/04/09 04:49:55;;;;;;;0.70;0.70;;;-1.10;99.90;;;;;;4975423;28;20196;-77
2022/04/09 04:52:21;;;;;;;0.80;0.80;;;-1.10;99.90;;;;;;4990107;28;20290;-78
2022/04/09 04:54:46;;;;;;;0.80;0.80;;;-1.00;99.90;;;;;;4990276;28;20196;-77
2022/04/09 04:57:12;;;;;;;0.70;0.70;;;-0.90;99.90;;;;;;4990211;28;20204;-77
2022/04/09 04:59:38;;;;;;;0.70;0.70;;;-0.80;99.90;;;;;;4989967;28;20299;-77
2022/04/09 05:02:04;;;;;;;0.60;0.60;;;-0.70;99.90;;;;;;4990005;28;20205;-77
2022/04/09 05:04:30;;;;;;;0.73;0.73;;;-0.60;99.90;;;;;;4976908;28;20299;-77
2022/04/09 05:06:56;;;;;;;0.70;0.70;;;-0.60;99.90;;;;;;4993272;28;20305;-77
2022/04/09 05:09:22;;;;;;;0.80;0.80;;;-0.50;99.90;;;;;;4994119;28;20273;-77
2022/04/09 05:11:48;;;;;;;0.70;0.70;;;-0.50;99.90;;;;;;4993209;28;20242;-76
2022/04/09 05:14:13;;;;;;;0.80;0.80;;;-0.40;99.90;;;;;;4976825;28;20354;-78
2022/04/09 05:16:39;;;;;;;0.60;0.60;;;-0.40;99.90;;;;;;4977659;28;20606;-77
2022/04/09 05:19:05;;;;;;;0.80;0.80;;;-0.30;99.90;;;;;;4973524;28;20200;-77
2022/04/09 05:21:31;;;;;;;0.80;0.80;;;-0.40;99.90;;;;;;4974530;28;20204;-77
2022/04/09 05:23:57;;;;;;;0.73;0.73;;;-0.40;99.90;;;;;;4957189;28;20200;-77
2022/04/09 05:26:22;;;;;;;0.70;0.70;;;-0.40;99.90;;;;;;4974317;28;20581;-77
2022/04/09 05:28:53;;;;;;;0.80;0.80;;;-0.40;99.90;;;;;;4957190;28;20200;-77
2022/04/09 05:31:28;;;;;;;0.80;0.80;;;-0.30;99.90;;;;;;4974484;28;20188;-77
2022/04/09 05:33:56;;;;;;;0.75;0.75;;;-0.30;99.90;;;;;;4956923;28;20199;-77
2022/04/09 05:36:21;;;;;;;0.63;0.63;;;-0.10;99.90;;;;;;4949424;29;20205;-77
2022/04/09 05:38:47;;;;;;;0.70;0.70;;;0.10;99.90;;;;;;4955134;28;20291;-78
2022/04/09 05:41:13;;;;;;;0.70;0.70;;;0.30;99.90;;;;;;4989206;28;20211;-78
2022/04/09 05:43:39;;;;;;;0.80;0.80;;;0.40;99.90;;;;;;4982598;28;20238;-77
2022/04/09 05:46:05;;;;;;;0.85;0.85;;;0.40;99.90;;;;;;4956816;28;20271;-78
2022/04/09 05:48:31;;;;;;;0.70;0.70;;;0.50;99.90;;;;;;4974022;28;20192;-77
2022/04/09 05:50:58;;;;;;;0.73;0.73;;;0.50;99.90;;;;;;4956884;28;20571;-77
2022/04/09 05:53:23;;;;;;;0.60;0.60;;;0.50;99.90;;;;;;4974041;28;20204;-77
2022/04/09 05:55:49;;;;;;;0.68;0.68;;;0.60;99.90;;;;;;4956815;28;20211;-77
2022/04/09 05:58:15;;;;;;;0.70;0.70;;;0.50;99.90;;;;;;4973638;28;20558;-78
2022/04/09 06:00:40;;;;;;;0.70;0.70;;;0.50;99.90;;;;;;4972521;28;20504;-77
2022/04/09 06:03:06;;;;;;;0.80;0.80;;;0.60;99.90;;;;;;4956676;28;20270;-77
2022/04/09 06:05:32;;;;;;;0.60;0.60;;;0.60;99.90;;;;;;4972481;28;20208;-78
2022/04/09 06:07:58;;;;;;;0.73;0.73;;;0.60;99.90;;;;;;4956911;28;20191;-78
2022/04/09 06:10:24;;;;;;;0.70;0.70;;;0.60;99.90;;;;;;4973685;28;20303;-78
2022/04/09 06:12:49;;;;;;;0.70;0.70;;;0.70;99.90;;;;;;4956419;28;20200;-78
2022/04/09 06:15:15;;;;;;;0.80;0.80;;;0.80;99.90;;;;;;4956545;28;20204;-78
2022/04/09 06:17:41;;;;;;;0.70;0.70;;;0.90;99.90;;;;;;4956242;28;20232;-77
2022/04/09 06:20:07;;;;;;;0.60;0.60;;;0.80;99.90;;;;;;4956465;28;20562;-78
2022/04/09 06:22:33;;;;;;;0.70;0.70;;;0.90;99.90;;;;;;4956128;28;20660;-78
2022/04/09 06:24:59;;;;;;;0.70;0.70;;;1.00;99.90;;;;;;4977698;28;20275;-78
2022/04/09 06:27:25;;;;;;;0.60;0.60;;;1.00;99.90;;;;;;4991711;28;20203;-77
2022/04/09 06:29:51;;;;;;;0.70;0.70;;;1.00;99.90;;;;;;4991668;28;20192;-78
2022/04/09 06:32:17;;;;;;;0.70;0.70;;;1.10;99.90;;;;;;4993062;28;20195;-78
2022/04/09 06:34:42;;;;;;;0.63;0.63;;;1.10;99.90;;;;;;4993018;28;20602;-77
2022/04/09 06:37:08;;;;;;;0.68;0.68;;;1.20;99.90;;;;;;4975389;28;20199;-77
2022/04/09 06:39:34;;;;;;;0.70;0.70;;;1.40;99.90;;;;;;4992974;28;20191;-78
2022/04/09 06:42:03;;;;;;;0.50;0.50;;;1.40;99.90;;;;;;4991810;28;20213;-78
2022/04/09 06:44:28;;;;;;;0.60;0.60;;;1.50;99.90;;;;;;4992949;28;20234;-77
2022/04/09 06:46:54;;;;;;;0.60;0.60;;;1.70;99.90;;;;;;4975432;28;20221;-78
2022/04/09 06:49:20;;;;;;;0.65;0.65;;;1.70;99.90;;;;;;4975384;28;20191;-78
2022/04/09 06:51:47;;;;;;;0.93;0.90;;;1.90;99.90;;;;;;4991692;28;20196;-77
2022/04/09 06:54:13;;;;;;;0.70;0.70;;;1.90;99.90;;;;;;4975442;28;20226;-78
2022/04/09 06:56:39;;;;;;;0.70;0.70;;;1.90;99.90;;;;;;4975421;28;20214;-77
2022/04/09 06:59:05;;;;;;;0.68;0.68;;;2.00;99.90;;;;;;4991644;28;20662;-77
2022/04/09 07:01:31;;;;;;;0.60;0.60;;;2.00;99.90;;;;;;4992672;28;20198;-77
2022/04/09 07:03:57;;;;;;;0.57;0.57;;;2.20;99.90;;;;;;4975356;28;20203;-78
2022/04/09 07:06:23;;;;;;;0.60;0.60;;;2.10;99.90;;;;;;4975045;28;20216;-79
2022/04/09 07:08:49;;;;;;;0.60;0.60;;;2.20;99.90;;;;;;4992609;28;20219;-78
2022/04/09 07:11:14;;;;;;;0.70;0.70;;;2.30;99.90;;;;;;4978062;28;20258;-78
2022/04/09 07:13:40;;;;;;;0.60;0.60;;;2.40;99.90;;;;;;4978630;28;20234;-78
2022/04/09 07:16:06;;;;;;;0.50;0.50;;;2.40;99.90;;;;;;4996884;28;20278;-77
2022/04/09 07:18:32;;;;;;;0.60;0.60;;;2.60;99.90;;;;;;4996335;28;20202;-77
2022/04/09 07:20:58;;;;;;;0.50;0.50;;;2.60;99.90;;;;;;4996375;28;20282;-77
2022/04/09 07:23:23;;;;;;;0.52;0.52;;;2.70;99.90;;;;;;4996150;28;20696;-78
2022/04/09 07:25:49;;;;;;;0.57;0.57;;;2.80;99.90;;;;;;4978666;28;20304;-78
2022/04/09 07:28:15;;;;;;;0.60;0.60;;;2.70;99.90;;;;;;5009359;28;20208;-77
2022/04/09 07:30:43;;;;;;;0.60;0.60;;;2.80;99.90;;;;;;4996359;28;20230;-77
2022/04/09 07:33:09;;;;;;;0.60;0.60;;;2.70;99.90;;;;;;4996286;28;20204;-78
2022/04/09 07:35:35;;;;;;;0.60;0.60;;;2.70;99.90;;;;;;4991258;28;20200;-77
2022/04/09 07:38:01;;;;;;;0.60;0.60;;;2.70;99.90;;;;;;4976767;28;20683;-77
2022/04/09 07:40:30;;;;;;;0.63;0.63;;;2.80;99.90;;;;;;4975239;28;20288;-77
2022/04/09 07:42:57;;;;;;;0.68;0.68;;;2.70;99.90;;;;;;4975284;28;20200;-77
2022/04/09 07:45:23;;;;;;;0.80;0.80;;;3.00;99.90;;;;;;4976301;28;20200;-77
2022/04/09 07:47:58;;;;;;;0.70;0.70;;;3.10;99.90;;;;;;4975246;28;20588;-76
2022/04/09 07:50:25;;;;;;;0.65;0.65;;;3.10;99.90;;;;;;4974914;28;20250;-76
2022/04/09 07:52:51;;;;;;;0.52;0.52;;;3.10;99.90;;;;;;4975137;28;20288;-76
2022/04/09 07:55:17;;;;;;;0.57;0.57;;;3.00;99.90;;;;;;4976349;28;20196;-77
2022/04/09 07:57:47;;;;;;;0.60;0.60;;;2.80;99.90;;;;;;4974985;28;20200;-77
2022/04/09 08:00:17;;;;;;;0.68;0.68;;;2.90;99.90;;;;;;4975103;28;20566;-77
2022/04/09 08:02:43;;;;;;;0.60;0.60;;;3.10;99.90;;;;;;4974824;28;20647;-77
2022/04/09 08:05:10;;;;;;;0.60;0.60;;;3.30;99.90;;;;;;4977909;28;20196;-76
2022/04/09 08:07:37;;;;;;;0.60;0.60;;;3.20;99.90;;;;;;4995431;28;20192;-76
2022/04/09 08:10:04;;;;;;;0.50;0.50;;;3.30;99.90;;;;;;4995345;28;20223;-76
2022/04/09 08:12:29;;;;;;;0.68;0.68;;;3.10;99.90;;;;;;4995260;28;20663;-77
2022/04/09 08:14:55;;;;;;;0.60;0.60;;;3.00;99.90;;;;;;4978017;28;20254;-77
2022/04/09 08:17:21;;;;;;;0.60;0.60;;;2.90;99.90;;;;;;4977793;28;20195;-79
2022/04/09 08:19:47;;;;;;;0.40;0.40;;;3.00;99.90;;;;;;4995302;28;20198;-76
2022/04/09 08:22:13;;;;;;;0.50;0.50;;;3.00;99.90;;;;;;4977109;28;20204;-78
2022/04/09 08:24:41;;;;;;;0.70;0.70;;;2.90;99.90;;;;;;4993646;28;20639;-77
2022/04/09 08:27:08;;;;;;;0.50;0.50;;;2.80;99.90;;;;;;4978151;28;20738;-77
2022/04/09 08:29:35;;;;;;;0.60;0.60;;;2.90;99.90;;;;;;4960990;28;20200;-76
2022/04/09 08:32:01;;;;;;;0.65;0.65;;;3.00;99.90;;;;;;4958465;28;20668;-77
2022/04/09 08:34:29;;;;;;;0.63;0.63;;;3.20;99.90;;;;;;4975494;28;20251;-77
2022/04/09 08:36:55;;;;;;;0.52;0.52;;;3.40;99.90;;;;;;4974378;28;20246;-78
2022/04/09 08:39:21;;;;;;;0.80;0.80;;;3.60;99.90;;;;;;4974118;28;20299;-78
2022/04/09 08:41:48;;;;;;;0.60;0.60;;;3.40;99.90;;;;;;4975487;28;20279;-77
2022/04/09 08:44:15;;;;;;;0.55;0.55;;;3.50;99.90;;;;;;4974107;28;20262;-77
2022/04/09 08:46:40;;;;;;;0.50;0.50;;;3.50;99.90;;;;;;4976086;28;20216;-77
2022/04/09 08:49:08;;;;;;;0.50;0.50;;;3.60;99.90;;;;;;4977342;28;20199;-76
2022/04/09 08:51:34;;;;;;;0.60;0.60;;;3.80;99.90;;;;;;4993215;28;20222;-77
2022/04/09 08:54:04;;;;;;;0.68;0.68;;;3.80;99.90;;;;;;4993429;28;20659;-77
2022/04/09 08:56:31;;;;;;;0.50;0.50;;;3.80;99.90;;;;;;4994817;28;20187;-77
2022/04/09 08:58:58;;;;;;;0.60;0.60;;;3.80;99.90;;;;;;4993265;28;20195;-77
2022/04/09 09:01:24;;;;;;;0.50;0.50;;;3.70;99.90;;;;;;4994108;28;20199;-77
2022/04/09 09:03:51;;;;;;;0.60;0.60;;;3.90;99.90;;;;;;4976918;28;20203;-77
2022/04/09 09:06:30;;;;;;;0.60;0.60;;;3.80;99.90;;;;;;4976714;28;20725;-77
2022/04/09 09:08:59;;;;;;;0.70;0.70;;;3.60;99.90;;;;;;4976770;28;20241;-78
2022/04/09 09:11:29;;;;;;;0.60;0.60;;;3.50;99.90;;;;;;4976778;28;20199;-77
2022/04/09 09:13:57;;;;;;;0.70;0.70;;;3.40;99.90;;;;;;4976892;28;20234;-77
2022/04/09 09:16:30;;;;;;;0.50;0.50;;;3.40;99.90;;;;;;4994159;28;20582;-77
2022/04/09 09:19:13;;;;;;;0.60;0.60;;;3.60;99.90;;;;;;4976625;28;20678;-77
2022/04/09 09:21:51;;;;;;;0.40;0.40;;;3.60;99.90;;;;;;4976542;28;20206;-76
2022/04/09 09:24:17;;;;;;;0.60;0.60;;;3.50;99.90;;;;;;4993988;28;20195;-76
2022/04/09 09:26:46;;;;;;;0.60;0.60;;;3.70;99.90;;;;;;4976387;28;20207;-76
2022/04/09 09:29:26;;;;;;;0.65;0.65;;;3.60;99.90;;;;;;4992749;28;20686;-76
2022/04/09 09:31:52;;;;;;;0.47;0.47;;;3.90;99.90;;;;;;4976491;28;20191;-77
2022/04/09 09:34:19;;;;;;;0.70;0.70;;;4.20;99.90;;;;;;4992115;28;20294;-77
2022/04/09 09:36:45;;;;;;;0.60;0.60;;;4.20;99.90;;;;;;4976295;28;20211;-77
2022/04/09 09:39:13;;;;;;;0.60;0.60;;;4.30;99.90;;;;;;4976281;28;20200;-76
2022/04/09 09:42:02;;;;;;;0.50;0.50;;;4.50;99.90;;;;;;4976285;28;20682;-77
2022/04/09 09:44:34;;;;;;;0.60;0.60;;;4.60;99.90;;;;;;4993474;28;20678;-77
2022/04/09 09:47:07;;;;;;;0.65;0.65;;;4.50;99.90;;;;;;4976185;28;20219;-76
2022/04/09 09:49:38;;;;;;;0.68;0.68;;;4.80;99.90;;;;;;4976028;28;20207;-76
2022/04/09 09:52:09;;;;;;;0.60;0.60;;;4.70;99.90;;;;;;4976298;28;20689;-77
2022/04/09 09:54:59;;;;;;;0.70;0.70;;;4.60;99.90;;;;;;4976058;28;20683;-77
2022/04/09 09:57:28;;;;;;;0.80;0.80;;;4.80;99.90;;;;;;4975867;28;20203;-77
2022/04/09 10:00:04;;;;;;;0.70;0.70;;;4.80;99.90;;;;;;4992333;28;20211;-77
2022/04/09 10:02:30;;;;;;;0.80;0.80;;;4.70;99.90;;;;;;4975693;28;20199;-77
2022/04/09 10:04:56;;;;;;;0.80;0.80;;;4.40;99.90;;;;;;4975916;28;20206;-77
2022/04/09 10:07:23;;;;;;;0.60;0.60;;;4.50;99.90;;;;;;4993207;28;20195;-78
2022/04/09 10:09:49;;;;;;;0.50;0.50;;;4.50;99.90;;;;;;4975757;28;20230;-77
2022/04/09 10:12:24;;;;;;;0.68;0.68;;;4.40;99.90;;;;;;4975867;28;20203;-78
2022/04/09 10:14:54;;;;;;;0.50;0.50;;;4.30;99.90;;;;;;4976185;28;20654;-78
2022/04/09 10:17:21;;;;;;;0.60;0.60;;;4.40;99.90;;;;;;4964915;28;20212;-78
2022/04/09 10:19:54;;;;;;;0.68;0.68;;;4.20;99.90;;;;;;4991955;28;20199;-78
2022/04/09 10:22:26;;;;;;;0.70;0.70;;;4.30;99.90;;;;;;4991708;28;20231;-78
2022/04/09 10:24:54;;;;;;;0.60;0.60;;;4.20;99.90;;;;;;4991925;28;20196;-78
2022/04/09 10:27:40;;;;;;;0.50;0.50;;;4.60;99.90;;;;;;4991824;28;20196;-79
2022/04/09 10:30:15;;;;;;;0.60;0.60;;;4.80;99.90;;;;;;4992000;28;20678;-78
2022/04/09 10:32:42;;;;;;;1.17;1.13;;;4.70;99.90;;;;;;4991779;28;20607;-78
2022/04/09 10:35:39;;;;;;;0.60;0.60;;;4.70;99.90;;;;;;4991752;28;20207;-78
2022/04/09 10:38:10;;;;;;;0.70;0.70;;;4.30;99.90;;;;;;4991853;28;20695;-77
2022/04/09 10:40:55;;;;;;;0.55;0.55;;;3.90;99.90;;;;;;4991603;28;20195;-78
2022/04/09 10:43:24;;;;;;;0.60;0.60;;;4.10;99.90;;;;;;4990835;28;20740;-79
2022/04/09 10:46:02;;;;;;;0.60;0.60;;;4.80;99.90;;;;;;4995977;28;20242;-78
2022/04/09 10:48:31;;;;;;;0.55;0.55;;;5.60;99.90;;;;;;4995331;28;20221;-79
2022/04/09 10:51:06;;;;;;;0.70;0.70;;;6.00;99.90;;;;;;4979674;28;20233;-77
2022/04/09 10:53:38;;;;;;;0.70;0.70;;;6.70;99.90;;;;;;4996832;28;20650;-78
2022/04/09 10:56:27;;;;;;;0.50;0.50;;;6.50;99.90;;;;;;4979485;28;20298;-78
2022/04/09 10:59:16;;;;;;;0.70;0.70;;;6.90;99.90;;;;;;4979287;28;20269;-79
2022/04/09 11:01:51;;;;;;;0.75;0.75;;;7.80;99.90;;;;;;4979153;28;20290;-79
2022/04/09 11:04:34;;;;;;;0.70;0.70;;;7.60;99.90;;;;;;4979236;28;20286;-78
2022/04/09 11:07:10;;;;;;;0.63;0.63;;;7.00;99.90;;;;;;4979156;28;20657;-79
2022/04/09 11:09:49;;;;;;;0.60;0.60;;;7.20;99.90;;;;;;4979037;28;20750;-78
2022/04/09 11:12:19;;;;;;;0.50;0.50;;;7.50;99.90;;;;;;4995900;28;20559;-79
2022/04/09 11:15:00;;;;;;;0.70;0.70;;;7.70;99.90;;;;;;4995203;28;20682;-79
2022/04/09 11:17:35;;;;;;;0.60;0.60;;;8.60;99.90;;;;;;4994779;28;20238;-79
2022/04/09 11:20:03;;;;;;;0.70;0.70;;;8.50;99.90;;;;;;4995214;28;20199;-79
2022/04/09 11:22:34;;;;;;;0.68;0.68;;;8.90;99.90;;;;;;4994317;28;20249;-80
2022/04/09 11:25:00;;;;;;;0.60;0.60;;;9.00;99.90;;;;;;4978756;28;20204;-79
2022/04/09 11:27:27;;;;;;;0.70;0.70;;;8.80;99.90;;;;;;4996285;28;20729;-79
2022/04/09 11:29:55;;;;;;;0.70;0.70;;;8.00;99.90;;;;;;4978857;28;20261;-78
2022/04/09 11:32:21;;;;;;;0.73;0.73;;;7.60;99.90;;;;;;4978604;28;20199;-79
2022/04/09 11:34:51;;;;;;;0.60;0.60;;;6.90;99.90;;;;;;4978727;28;20335;-79
2022/04/09 11:37:17;;;;;;;0.60;0.60;;;6.50;99.90;;;;;;4975286;28;20557;-79
2022/04/09 11:39:45;;;;;;;0.60;0.60;;;6.20;99.90;;;;;;4976658;28;20691;-79
2022/04/09 11:42:11;;;;;;;0.70;0.70;;;6.00;99.90;;;;;;4976718;28;20590;-78
2022/04/09 11:44:41;;;;;;;0.63;0.63;;;6.30;99.90;;;;;;4975222;28;20202;-79
2022/04/09 11:47:08;;;;;;;0.70;0.70;;;6.50;99.90;;;;;;4975360;28;20703;-79
2022/04/09 11:49:34;;;;;;;0.70;0.70;;;6.70;99.90;;;;;;4983361;28;20250;-79
2022/04/09 11:52:00;;;;;;;0.68;0.68;;;6.90;99.90;;;;;;4978491;28;20535;-80
2022/04/09 11:54:32;;;;;;;0.80;0.80;;;7.30;99.90;;;;;;4995667;28;20191;-79
2022/04/09 11:57:00;;;;;;;0.60;0.60;;;7.60;99.90;;;;;;4977663;28;20262;-78
2022/04/09 11:59:25;;;;;;;0.65;0.65;;;7.30;99.90;;;;;;4978108;28;20200;-78
2022/04/09 12:01:52;;;;;;;0.40;0.40;;;6.90;99.90;;;;;;4994384;28;20270;-78
2022/04/09 12:04:20;;;;;;;0.60;0.60;;;6.50;99.90;;;;;;4995700;28;20280;-78
2022/04/09 12:06:46;;;;;;;0.70;0.70;;;5.90;99.90;;;;;;4995596;28;20214;-77
2022/04/09 12:09:13;;;;;;;0.70;0.70;;;5.10;99.90;;;;;;4978011;28;20732;-78
2022/04/09 12:12:05;;;;;;;0.70;0.70;;;5.20;99.90;;;;;;4977960;28;20290;-78
2022/04/09 12:14:31;;;;;;;0.70;0.70;;;5.40;99.90;;;;;;4973961;28;20226;-78
2022/04/09 12:17:07;;;;;;;0.60;0.60;;;6.00;99.90;;;;;;4994246;28;20208;-78
2022/04/09 12:19:33;;;;;;;0.50;0.50;;;6.80;99.90;;;;;;4993976;28;20671;-78
2022/04/09 12:22:34;;;;;;;0.60;0.60;;;7.90;99.90;;;;;;4995454;28;20243;-78
2022/04/09 12:25:00;;;;;;;0.65;0.65;;;8.40;99.90;;;;;;4954405;29;20623;-78
2022/04/09 12:27:45;;;;;;;0.70;0.70;;;7.50;99.90;;;;;;4954148;28;20303;-78
2022/04/09 12:30:13;;;;;;;0.60;0.60;;;6.70;99.90;;;;;;4954427;29;20692;-78
2022/04/09 12:32:41;;;;;;;0.70;0.70;;;6.20;99.90;;;;;;4954251;29;20710;-78
2022/04/09 12:35:11;;;;;;;0.60;0.60;;;6.10;99.90;;;;;;4954246;29;20578;-78
2022/04/09 12:37:47;;;;;;;0.70;0.70;;;6.40;99.90;;;;;;4954032;28;20691;-78
2022/04/09 12:40:18;;;;;;;0.50;0.50;;;6.90;99.90;;;;;;4954121;29;20703;-78
2022/04/09 12:42:46;;;;;;;0.60;0.60;;;7.50;99.90;;;;;;4954150;29;20687;-78
2022/04/09 12:45:22;;;;;;;0.70;0.70;;;8.00;99.90;;;;;;4953871;29;20220;-78
2022/04/09 12:48:04;;;;;;;0.75;0.75;;;8.70;99.90;;;;;;4938046;29;20216;-78
2022/04/09 12:50:35;;;;;;;0.60;0.60;;;8.80;99.90;;;;;;4937694;29;20628;-78
2022/04/09 12:53:03;;;;;;;0.68;0.68;;;8.30;99.90;;;;;;4937807;28;20208;-79
2022/04/09 12:55:30;;;;;;;0.60;0.60;;;8.00;99.90;;;;;;4937755;29;20381;-78
2022/04/09 12:57:57;;;;;;;0.57;0.57;;;7.50;99.90;;;;;;4940842;28;20714;-77